sensor_id;sensor_type;location;lat;lon;timestamp;pressure;altitude;pressure_sealevel;temperature;humidity
41596;BME280;27283;52.504;13.358;2022-08-19T00:00:05;100583.38;;;20.84;100.00
41596;BME280;27283;52.504;13.358;2022-08-19T00:02:59;100583.97;;;20.86;100.00
41596;BME280;27283;52.504;13.358;2022-08-19T00:05:31;100593.84;;;20.87;100.00
41596;BME280;27283;52.504;13.358;2022-08-19T00:08:03;100597.72;;;21.15;100.00
41596;BME280;27283;52.504;13.358;2022-08-19T00:10:35;100596.88;;;21.38;100.00
41596;BME280;27283;52.504;13.358;2022-08-19T00:13:10;100584.50;;;21.35;100.00
41596;BME280;27283;52.504;13.358;2022-08-19T00:15:44;100578.50;;;20.98;100.00
41596;BME280;27283;52.504;13.358;2022-08-19T00:18:16;100583.00;;;20.80;100.00
41596;BME280;27283;52.504;13.358;2022-08-19T00:20:48;100601.22;;;20.75;100.00
41596;BME280;27283;52.504;13.358;2022-08-19T00:23:21;100610.22;;;20.75;100.00
41596;BME280;27283;52.504;13.358;2022-08-19T00:25:54;100600.34;;;21.21;100.00
41596;BME280;27283;52.504;13.358;2022-08-19T00:28:29;100593.00;;;20.98;100.00
41596;BME280;27283;52.504;13.358;2022-08-19T00:31:04;100585.88;;;21.09;100.00
41596;BME280;27283;52.504;13.358;2022-08-19T00:33:37;100591.59;;;20.96;100.00
41596;BME280;27283;52.504;13.358;2022-08-19T00:36:10;100598.34;;;20.93;100.00
41596;BME280;27283;52.504;13.358;2022-08-19T00:38:43;100600.59;;;20.84;100.00
41596;BME280;27283;52.504;13.358;2022-08-19T00:41:18;100595.59;;;21.17;100.00
41596;BME280;27283;52.504;13.358;2022-08-19T00:44:05;100579.78;;;21.19;100.00
41596;BME280;27283;52.504;13.358;2022-08-19T00:46:40;100571.47;;;21.14;100.00
41596;BME280;27283;52.504;13.358;2022-08-19T00:49:27;100576.25;;;20.95;100.00
41596;BME280;27283;52.504;13.358;2022-08-19T00:52:04;100576.47;;;21.05;100.00
41596;BME280;27283;52.504;13.358;2022-08-19T00:54:39;100572.09;;;20.92;100.00
41596;BME280;27283;52.504;13.358;2022-08-19T00:57:15;100567.81;;;20.84;100.00
41596;BME280;27283;52.504;13.358;2022-08-19T00:59:52;100573.53;;;20.83;100.00
41596;BME280;27283;52.504;13.358;2022-08-19T01:02:30;100573.13;;;21.15;100.00
41596;BME280;27283;52.504;13.358;2022-08-19T01:05:06;100577.06;;;20.95;100.00
41596;BME280;27283;52.504;13.358;2022-08-19T01:07:40;100577.94;;;20.84;100.00
41596;BME280;27283;52.504;13.358;2022-08-19T01:10:15;100579.78;;;21.07;100.00
41596;BME280;27283;52.504;13.358;2022-08-19T01:12:49;100588.53;;;21.33;100.00
41596;BME280;27283;52.504;13.358;2022-08-19T01:15:28;100587.97;;;21.31;100.00
41596;BME280;27283;52.504;13.358;2022-08-19T01:18:04;100589.19;;;20.99;100.00
41596;BME280;27283;52.504;13.358;2022-08-19T01:20:39;100592.41;;;20.96;100.00
41596;BME280;27283;52.504;13.358;2022-08-19T01:23:15;100602.59;;;21.24;100.00
41596;BME280;27283;52.504;13.358;2022-08-19T01:25:49;100603.00;;;20.93;100.00
41596;BME280;27283;52.504;13.358;2022-08-19T01:28:26;100588.84;;;20.84;100.00
41596;BME280;27283;52.504;13.358;2022-08-19T01:31:03;100598.13;;;20.83;100.00
41596;BME280;27283;52.504;13.358;2022-08-19T01:33:35;100605.81;;;20.74;100.00
41596;BME280;27283;52.504;13.358;2022-08-19T01:36:10;100604.78;;;20.87;100.00
41596;BME280;27283;52.504;13.358;2022-08-19T01:38:46;100616.66;;;20.81;100.00
41596;BME280;27283;52.504;13.358;2022-08-19T01:41:18;100609.94;;;20.65;100.00
41596;BME280;27283;52.504;13.358;2022-08-19T01:43:54;100605.97;;;20.79;100.00
41596;BME280;27283;52.504;13.358;2022-08-19T01:46:47;100605.78;;;20.39;100.00
41596;BME280;27283;52.504;13.358;2022-08-19T01:49:21;100590.59;;;20.43;100.00
41596;BME280;27283;52.504;13.358;2022-08-19T01:51:55;100595.66;;;20.39;100.00
41596;BME280;27283;52.504;13.358;2022-08-19T01:54:30;100618.59;;;20.50;100.00
41596;BME280;27283;52.504;13.358;2022-08-19T01:57:05;100623.06;;;20.75;100.00
41596;BME280;27283;52.504;13.358;2022-08-19T01:59:39;100624.25;;;20.79;100.00
41596;BME280;27283;52.504;13.358;2022-08-19T02:02:12;100620.00;;;20.41;100.00
41596;BME280;27283;52.504;13.358;2022-08-19T02:04:44;100639.25;;;20.34;100.00
41596;BME280;27283;52.504;13.358;2022-08-19T02:07:19;100604.56;;;20.34;100.00
41596;BME280;27283;52.504;13.358;2022-08-19T02:09:58;100589.72;;;20.18;100.00
41596;BME280;27283;52.504;13.358;2022-08-19T02:12:37;100599.19;;;20.16;100.00
41596;BME280;27283;52.504;13.358;2022-08-19T02:15:09;100598.50;;;20.21;100.00
41596;BME280;27283;52.504;13.358;2022-08-19T02:17:42;100560.75;;;20.29;100.00
41596;BME280;27283;52.504;13.358;2022-08-19T02:20:14;100529.44;;;19.90;100.00
41596;BME280;27283;52.504;13.358;2022-08-19T02:22:46;100483.00;;;19.66;100.00
41596;BME280;27283;52.504;13.358;2022-08-19T02:25:21;100485.63;;;19.73;100.00
41596;BME280;27283;52.504;13.358;2022-08-19T02:27:53;100505.88;;;19.65;100.00
41596;BME280;27283;52.504;13.358;2022-08-19T02:30:25;100513.66;;;19.80;100.00
41596;BME280;27283;52.504;13.358;2022-08-19T02:32:57;100519.88;;;19.69;100.00
41596;BME280;27283;52.504;13.358;2022-08-19T02:35:29;100503.03;;;20.14;100.00
41596;BME280;27283;52.504;13.358;2022-08-19T02:38:01;100487.25;;;20.04;100.00
41596;BME280;27283;52.504;13.358;2022-08-19T02:40:52;100488.09;;;19.74;100.00
41596;BME280;27283;52.504;13.358;2022-08-19T02:43:25;100491.31;;;19.71;100.00
41596;BME280;27283;52.504;13.358;2022-08-19T02:46:10;100491.66;;;19.63;100.00
41596;BME280;27283;52.504;13.358;2022-08-19T02:48:43;100478.84;;;19.63;100.00
41596;BME280;27283;52.504;13.358;2022-08-19T02:51:19;100482.72;;;19.56;100.00
41596;BME280;27283;52.504;13.358;2022-08-19T02:53:53;100499.63;;;19.76;100.00
41596;BME280;27283;52.504;13.358;2022-08-19T02:56:28;100509.44;;;19.96;100.00
41596;BME280;27283;52.504;13.358;2022-08-19T02:59:00;100518.91;;;19.93;100.00
41596;BME280;27283;52.504;13.358;2022-08-19T03:01:39;100510.81;;;19.87;100.00
41596;BME280;27283;52.504;13.358;2022-08-19T03:04:14;100512.00;;;19.79;100.00
41596;BME280;27283;52.504;13.358;2022-08-19T03:06:48;100516.53;;;19.97;100.00
41596;BME280;27283;52.504;13.358;2022-08-19T03:09:20;100509.78;;;19.99;100.00
41596;BME280;27283;52.504;13.358;2022-08-19T03:11:55;100507.63;;;19.90;100.00
41596;BME280;27283;52.504;13.358;2022-08-19T03:14:30;100519.00;;;19.87;100.00
41596;BME280;27283;52.504;13.358;2022-08-19T03:17:03;100517.50;;;20.03;100.00
41596;BME280;27283;52.504;13.358;2022-08-19T03:19:37;100517.63;;;19.96;100.00
41596;BME280;27283;52.504;13.358;2022-08-19T03:22:08;100506.25;;;20.11;100.00
41596;BME280;27283;52.504;13.358;2022-08-19T03:24:41;100505.06;;;20.07;100.00
41596;BME280;27283;52.504;13.358;2022-08-19T03:27:16;100499.66;;;19.88;100.00
41596;BME280;27283;52.504;13.358;2022-08-19T03:29:49;100501.69;;;19.93;100.00
41596;BME280;27283;52.504;13.358;2022-08-19T03:32:21;100498.50;;;19.84;100.00
41596;BME280;27283;52.504;13.358;2022-08-19T05:26:31;100487.88;;;20.53;100.00
41596;BME280;27283;52.504;13.358;2022-08-19T05:29:38;100498.75;;;21.01;100.00
41596;BME280;27283;52.504;13.358;2022-08-19T05:32:54;100490.13;;;20.80;100.00
41596;BME280;27283;52.504;13.358;2022-08-19T05:35:48;100487.28;;;20.87;100.00
41596;BME280;27283;52.504;13.358;2022-08-19T05:39:39;100494.28;;;20.83;100.00
41596;BME280;27283;52.504;13.358;2022-08-19T05:42:53;100500.75;;;21.05;100.00
41596;BME280;27283;52.504;13.358;2022-08-19T05:45:39;100494.69;;;21.15;100.00
41596;BME280;27283;52.504;13.358;2022-08-19T05:48:12;100483.41;;;21.12;100.00
41596;BME280;27283;52.504;13.358;2022-08-19T05:51:04;100491.97;;;21.73;100.00
41596;BME280;27283;52.504;13.358;2022-08-19T05:54:00;100497.59;;;21.66;100.00
41596;BME280;27283;52.504;13.358;2022-08-19T05:57:41;100489.25;;;21.73;100.00
41596;BME280;27283;52.504;13.358;2022-08-19T06:04:16;100512.06;;;21.95;100.00
41596;BME280;27283;52.504;13.358;2022-08-19T06:07:15;100519.59;;;21.88;100.00
41596;BME280;27283;52.504;13.358;2022-08-19T06:09:50;100518.78;;;21.88;100.00
41596;BME280;27283;52.504;13.358;2022-08-19T06:13:00;100527.00;;;22.05;100.00
41596;BME280;27283;52.504;13.358;2022-08-19T06:16:29;100519.34;;;21.90;100.00
41596;BME280;27283;52.504;13.358;2022-08-19T06:19:05;100510.97;;;21.80;100.00
41596;BME280;27283;52.504;13.358;2022-08-19T06:21:38;100502.38;;;22.05;100.00
41596;BME280;27283;52.504;13.358;2022-08-19T06:24:41;100507.59;;;21.89;100.00
41596;BME280;27283;52.504;13.358;2022-08-19T06:27:47;100506.22;;;22.38;99.48
41596;BME280;27283;52.504;13.358;2022-08-19T06:30:39;100513.06;;;22.57;96.47
41596;BME280;27283;52.504;13.358;2022-08-19T06:33:44;100512.72;;;22.54;97.66
41596;BME280;27283;52.504;13.358;2022-08-19T06:36:37;100515.72;;;22.69;96.56
41596;BME280;27283;52.504;13.358;2022-08-19T06:39:28;100515.84;;;22.79;96.91
41596;BME280;27283;52.504;13.358;2022-08-19T06:43:05;100527.41;;;22.81;95.69
41596;BME280;27283;52.504;13.358;2022-08-19T06:46:22;100527.53;;;22.53;94.32
41596;BME280;27283;52.504;13.358;2022-08-19T06:49:18;100534.66;;;22.71;95.32
41596;BME280;27283;52.504;13.358;2022-08-19T06:52:20;100545.13;;;22.96;92.05
41596;BME280;27283;52.504;13.358;2022-08-19T06:54:53;100541.47;;;22.90;92.02
41596;BME280;27283;52.504;13.358;2022-08-19T06:57:46;100547.69;;;22.63;94.93
41596;BME280;27283;52.504;13.358;2022-08-19T07:00:52;100553.78;;;22.32;95.96
41596;BME280;27283;52.504;13.358;2022-08-19T07:03:26;100566.28;;;22.27;97.63
41596;BME280;27283;52.504;13.358;2022-08-19T07:06:06;100572.78;;;22.38;96.99
41596;BME280;27283;52.504;13.358;2022-08-19T07:09:29;100567.84;;;22.23;100.00
41596;BME280;27283;52.504;13.358;2022-08-19T07:12:57;100560.38;;;22.19;98.20
41596;BME280;27283;52.504;13.358;2022-08-19T07:19:05;100546.38;;;22.49;99.02
41596;BME280;27283;52.504;13.358;2022-08-19T07:21:50;100545.63;;;22.54;98.04
41596;BME280;27283;52.504;13.358;2022-08-19T07:24:25;100545.16;;;22.79;95.82
41596;BME280;27283;52.504;13.358;2022-08-19T07:27:02;100544.03;;;22.97;94.52
41596;BME280;27283;52.504;13.358;2022-08-19T07:29:42;100547.44;;;23.04;92.64
41596;BME280;27283;52.504;13.358;2022-08-19T07:32:24;100557.81;;;23.19;91.49
41596;BME280;27283;52.504;13.358;2022-08-19T07:34:57;100572.28;;;23.36;89.42
41596;BME280;27283;52.504;13.358;2022-08-19T07:37:32;100576.16;;;23.18;92.44
41596;BME280;27283;52.504;13.358;2022-08-19T07:40:07;100576.56;;;23.27;90.20
41596;BME280;27283;52.504;13.358;2022-08-19T07:42:40;100585.91;;;23.09;91.35
41596;BME280;27283;52.504;13.358;2022-08-19T07:45:12;100586.31;;;23.18;91.28
41596;BME280;27283;52.504;13.358;2022-08-19T07:47:45;100591.44;;;23.31;91.46
41596;BME280;27283;52.504;13.358;2022-08-19T07:50:20;100580.63;;;23.47;90.15
41596;BME280;27283;52.504;13.358;2022-08-19T07:52:55;100584.19;;;23.47;90.40
41596;BME280;27283;52.504;13.358;2022-08-19T07:55:28;100584.66;;;23.00;93.47
41596;BME280;27283;52.504;13.358;2022-08-19T07:58:14;100581.66;;;23.01;92.95
41596;BME280;27283;52.504;13.358;2022-08-19T08:00:50;100595.00;;;22.76;95.42
41596;BME280;27283;52.504;13.358;2022-08-19T08:03:22;100595.75;;;23.27;91.24
41596;BME280;27283;52.504;13.358;2022-08-19T08:06:16;100597.84;;;22.64;96.09
41596;BME280;27283;52.504;13.358;2022-08-19T08:09:04;100604.22;;;22.70;95.90
41596;BME280;27283;52.504;13.358;2022-08-19T08:11:49;100605.69;;;22.26;99.19
41596;BME280;27283;52.504;13.358;2022-08-19T08:14:24;100610.59;;;22.24;99.91
41596;BME280;27283;52.504;13.358;2022-08-19T08:17:05;100615.56;;;22.27;99.91
41596;BME280;27283;52.504;13.358;2022-08-19T08:19:39;100620.03;;;22.17;100.00
41596;BME280;27283;52.504;13.358;2022-08-19T08:22:15;100618.66;;;22.31;100.00
41596;BME280;27283;52.504;13.358;2022-08-19T08:25:23;100622.41;;;22.76;97.30
41596;BME280;27283;52.504;13.358;2022-08-19T08:28:00;100625.13;;;22.93;96.60
41596;BME280;27283;52.504;13.358;2022-08-19T08:30:32;100626.88;;;22.99;95.53
41596;BME280;27283;52.504;13.358;2022-08-19T08:33:06;100627.72;;;22.65;97.27
41596;BME280;27283;52.504;13.358;2022-08-19T08:35:40;100634.78;;;22.44;98.45
41596;BME280;27283;52.504;13.358;2022-08-19T08:38:15;100637.22;;;22.29;100.00
41596;BME280;27283;52.504;13.358;2022-08-19T08:40:53;100627.41;;;22.79;96.86
41596;BME280;27283;52.504;13.358;2022-08-19T08:43:38;100626.03;;;23.15;93.84
41596;BME280;27283;52.504;13.358;2022-08-19T08:46:14;100626.22;;;22.75;97.79
41596;BME280;27283;52.504;13.358;2022-08-19T08:49:05;100629.47;;;22.55;98.77
41596;BME280;27283;52.504;13.358;2022-08-19T08:51:43;100641.03;;;22.74;97.21
41596;BME280;27283;52.504;13.358;2022-08-19T08:54:33;100638.00;;;22.41;98.92
41596;BME280;27283;52.504;13.358;2022-08-19T08:57:12;100636.78;;;22.49;100.00
41596;BME280;27283;52.504;13.358;2022-08-19T08:59:48;100633.28;;;22.37;100.00
41596;BME280;27283;52.504;13.358;2022-08-19T09:02:24;100637.78;;;22.60;97.53
41596;BME280;27283;52.504;13.358;2022-08-19T09:04:57;100642.69;;;22.92;96.13
41596;BME280;27283;52.504;13.358;2022-08-19T09:07:41;100643.81;;;22.96;96.38
41596;BME280;27283;52.504;13.358;2022-08-19T09:10:20;100642.31;;;23.22;93.46
41596;BME280;27283;52.504;13.358;2022-08-19T09:13:04;100648.47;;;22.95;94.85
41596;BME280;27283;52.504;13.358;2022-08-19T09:15:43;100634.84;;;23.17;93.62
41596;BME280;27283;52.504;13.358;2022-08-19T09:18:17;100650.25;;;23.41;92.23
41596;BME280;27283;52.504;13.358;2022-08-19T09:20:50;100633.84;;;23.46;92.47
41596;BME280;27283;52.504;13.358;2022-08-19T09:23:24;100643.16;;;23.06;94.61
41596;BME280;27283;52.504;13.358;2022-08-19T09:25:57;100631.47;;;23.10;93.81
41596;BME280;27283;52.504;13.358;2022-08-19T09:28:31;100615.22;;;23.09;94.24
41596;BME280;27283;52.504;13.358;2022-08-19T09:31:06;100622.31;;;23.44;92.87
41596;BME280;27283;52.504;13.358;2022-08-19T09:33:39;100623.50;;;23.53;92.82
41596;BME280;27283;52.504;13.358;2022-08-19T09:36:15;100617.34;;;23.63;92.81
41596;BME280;27283;52.504;13.358;2022-08-19T09:39:03;100622.78;;;23.18;93.48
41596;BME280;27283;52.504;13.358;2022-08-19T09:41:44;100624.63;;;23.13;95.38
41596;BME280;27283;52.504;13.358;2022-08-19T09:44:21;100619.50;;;22.99;94.80
41596;BME280;27283;52.504;13.358;2022-08-19T09:46:54;100614.13;;;23.27;93.55
41596;BME280;27283;52.504;13.358;2022-08-19T09:49:27;100615.22;;;23.92;88.84
41596;BME280;27283;52.504;13.358;2022-08-19T09:51:59;100618.50;;;23.45;90.70
41596;BME280;27283;52.504;13.358;2022-08-19T09:54:31;100616.31;;;23.47;90.64
41596;BME280;27283;52.504;13.358;2022-08-19T09:57:05;100619.41;;;23.78;89.56
41596;BME280;27283;52.504;13.358;2022-08-19T09:59:39;100621.78;;;24.18;87.45
41596;BME280;27283;52.504;13.358;2022-08-19T10:02:13;100626.19;;;23.70;89.94
41596;BME280;27283;52.504;13.358;2022-08-19T10:04:49;100632.78;;;23.69;91.34
41596;BME280;27283;52.504;13.358;2022-08-19T10:07:33;100626.91;;;24.37;88.37
41596;BME280;27283;52.504;13.358;2022-08-19T10:10:06;100627.59;;;24.54;86.26
41596;BME280;27283;52.504;13.358;2022-08-19T10:12:40;100627.50;;;24.12;87.42
41596;BME280;27283;52.504;13.358;2022-08-19T10:15:18;100628.06;;;23.64;89.42
41596;BME280;27283;52.504;13.358;2022-08-19T10:17:56;100625.72;;;24.00;88.67
41596;BME280;27283;52.504;13.358;2022-08-19T10:20:32;100613.91;;;23.78;87.98
41596;BME280;27283;52.504;13.358;2022-08-19T10:23:05;100621.84;;;23.96;88.39
41596;BME280;27283;52.504;13.358;2022-08-19T10:25:37;100618.41;;;23.40;91.27
41596;BME280;27283;52.504;13.358;2022-08-19T10:28:11;100618.03;;;23.75;88.71
41596;BME280;27283;52.504;13.358;2022-08-19T10:30:53;100614.91;;;24.16;87.48
41596;BME280;27283;52.504;13.358;2022-08-19T10:33:25;100607.34;;;23.79;88.70
41596;BME280;27283;52.504;13.358;2022-08-19T10:36:21;100613.75;;;24.12;86.60
41596;BME280;27283;52.504;13.358;2022-08-19T10:38:56;100611.38;;;23.93;86.81
41596;BME280;27283;52.504;13.358;2022-08-19T10:41:32;100607.75;;;23.43;90.28
41596;BME280;27283;52.504;13.358;2022-08-19T10:44:06;100598.53;;;23.77;88.94
41596;BME280;27283;52.504;13.358;2022-08-19T10:46:44;100603.41;;;23.69;88.75
41596;BME280;27283;52.504;13.358;2022-08-19T10:49:18;100601.38;;;23.38;90.63
41596;BME280;27283;52.504;13.358;2022-08-19T10:51:52;100609.88;;;23.36;91.02
41596;BME280;27283;52.504;13.358;2022-08-19T10:54:40;100615.00;;;22.93;93.71
41596;BME280;27283;52.504;13.358;2022-08-19T10:57:24;100614.63;;;23.46;91.00
41596;BME280;27283;52.504;13.358;2022-08-19T11:00:18;100605.69;;;22.94;92.66
41596;BME280;27283;52.504;13.358;2022-08-19T11:02:54;100610.34;;;23.11;93.01
41596;BME280;27283;52.504;13.358;2022-08-19T11:05:26;100613.88;;;23.28;91.47
41596;BME280;27283;52.504;13.358;2022-08-19T11:08:07;100621.03;;;23.51;90.03
41596;BME280;27283;52.504;13.358;2022-08-19T11:10:52;100621.63;;;23.81;88.56
41596;BME280;27283;52.504;13.358;2022-08-19T11:13:27;100625.09;;;23.49;90.13
41596;BME280;27283;52.504;13.358;2022-08-19T11:16:02;100622.06;;;23.67;88.53
41596;BME280;27283;52.504;13.358;2022-08-19T11:18:42;100628.91;;;23.70;88.09
41596;BME280;27283;52.504;13.358;2022-08-19T11:21:17;100624.06;;;23.77;88.54
41596;BME280;27283;52.504;13.358;2022-08-19T11:23:53;100637.84;;;24.04;85.89
41596;BME280;27283;52.504;13.358;2022-08-19T11:26:28;100642.44;;;23.10;90.00
41596;BME280;27283;52.504;13.358;2022-08-19T11:29:01;100630.66;;;23.32;90.63
41596;BME280;27283;52.504;13.358;2022-08-19T11:31:35;100630.06;;;23.52;89.28
41596;BME280;27283;52.504;13.358;2022-08-19T11:34:12;100631.88;;;23.41;89.16
41596;BME280;27283;52.504;13.358;2022-08-19T11:36:47;100632.25;;;23.50;89.04
41596;BME280;27283;52.504;13.358;2022-08-19T11:39:21;100633.69;;;23.35;89.69
41596;BME280;27283;52.504;13.358;2022-08-19T11:41:54;100638.00;;;23.93;86.63
41596;BME280;27283;52.504;13.358;2022-08-19T11:44:26;100639.91;;;24.47;83.66
41596;BME280;27283;52.504;13.358;2022-08-19T11:46:58;100635.69;;;24.34;84.43
41596;BME280;27283;52.504;13.358;2022-08-19T11:49:38;100638.06;;;23.98;85.77
41596;BME280;27283;52.504;13.358;2022-08-19T11:52:10;100636.22;;;23.59;88.22
41596;BME280;27283;52.504;13.358;2022-08-19T11:54:42;100644.59;;;24.19;85.73
41596;BME280;27283;52.504;13.358;2022-08-19T11:57:15;100643.63;;;23.59;87.79
41596;BME280;27283;52.504;13.358;2022-08-19T11:59:49;100649.69;;;23.83;86.87
41596;BME280;27283;52.504;13.358;2022-08-19T12:02:22;100653.22;;;23.00;91.35
41596;BME280;27283;52.504;13.358;2022-08-19T12:04:57;100656.78;;;23.00;91.63
41596;BME280;27283;52.504;13.358;2022-08-19T12:07:34;100662.84;;;23.20;90.77
41596;BME280;27283;52.504;13.358;2022-08-19T12:10:06;100668.84;;;22.99;90.63
41596;BME280;27283;52.504;13.358;2022-08-19T12:12:39;100669.91;;;23.15;89.42
41596;BME280;27283;52.504;13.358;2022-08-19T12:15:27;100667.75;;;23.00;90.19
41596;BME280;27283;52.504;13.358;2022-08-19T12:18:05;100665.69;;;22.91;90.88
41596;BME280;27283;52.504;13.358;2022-08-19T12:20:40;100673.66;;;23.48;87.38
41596;BME280;27283;52.504;13.358;2022-08-19T12:23:14;100671.75;;;23.10;88.76
41596;BME280;27283;52.504;13.358;2022-08-19T12:25:47;100671.69;;;23.44;86.40
41596;BME280;27283;52.504;13.358;2022-08-19T12:28:24;100664.03;;;23.46;85.28
41596;BME280;27283;52.504;13.358;2022-08-19T12:30:57;100671.16;;;22.91;88.85
41596;BME280;27283;52.504;13.358;2022-08-19T12:33:31;100669.16;;;23.03;88.49
41596;BME280;27283;52.504;13.358;2022-08-19T12:36:08;100674.94;;;23.41;86.97
41596;BME280;27283;52.504;13.358;2022-08-19T12:38:40;100673.47;;;23.33;86.64
41596;BME280;27283;52.504;13.358;2022-08-19T12:41:16;100684.69;;;24.20;82.20
41596;BME280;27283;52.504;13.358;2022-08-19T12:43:50;100682.44;;;23.67;83.54
41596;BME280;27283;52.504;13.358;2022-08-19T12:46:22;100674.38;;;23.39;86.19
41596;BME280;27283;52.504;13.358;2022-08-19T12:48:54;100667.34;;;24.14;82.59
41596;BME280;27283;52.504;13.358;2022-08-19T12:51:28;100667.91;;;24.71;79.21
41596;BME280;27283;52.504;13.358;2022-08-19T12:54:00;100669.91;;;24.81;77.88
41596;BME280;27283;52.504;13.358;2022-08-19T12:56:33;100677.03;;;24.22;79.64
41596;BME280;27283;52.504;13.358;2022-08-19T12:59:05;100669.06;;;24.20;81.03
41596;BME280;27283;52.504;13.358;2022-08-19T13:01:41;100662.81;;;24.57;78.86
41596;BME280;27283;52.504;13.358;2022-08-19T13:04:13;100659.72;;;24.21;80.21
41596;BME280;27283;52.504;13.358;2022-08-19T13:06:47;100662.13;;;23.68;81.60
41596;BME280;27283;52.504;13.358;2022-08-19T13:09:20;100671.69;;;23.44;83.15
41596;BME280;27283;52.504;13.358;2022-08-19T13:11:51;100675.72;;;23.58;83.77
41596;BME280;27283;52.504;13.358;2022-08-19T13:14:26;100676.69;;;23.91;82.87
41596;BME280;27283;52.504;13.358;2022-08-19T13:17:01;100688.28;;;24.75;79.16
41596;BME280;27283;52.504;13.358;2022-08-19T13:19:33;100690.66;;;24.61;78.94
41596;BME280;27283;52.504;13.358;2022-08-19T13:22:10;100684.09;;;24.67;78.33
41596;BME280;27283;52.504;13.358;2022-08-19T13:24:42;100691.69;;;24.87;76.78
41596;BME280;27283;52.504;13.358;2022-08-19T13:27:14;100679.16;;;24.69;77.32
41596;BME280;27283;52.504;13.358;2022-08-19T13:29:46;100678.44;;;24.52;78.49
41596;BME280;27283;52.504;13.358;2022-08-19T13:32:30;100682.03;;;24.85;77.31
41596;BME280;27283;52.504;13.358;2022-08-19T13:35:18;100682.72;;;24.42;77.74
41596;BME280;27283;52.504;13.358;2022-08-19T13:37:55;100679.66;;;24.34;78.41
41596;BME280;27283;52.504;13.358;2022-08-19T13:40:27;100674.03;;;23.79;81.11
41596;BME280;27283;52.504;13.358;2022-08-19T13:43:01;100673.53;;;24.27;79.88
41596;BME280;27283;52.504;13.358;2022-08-19T13:45:52;100674.50;;;24.15;79.28
41596;BME280;27283;52.504;13.358;2022-08-19T13:48:25;100672.94;;;24.79;76.75
41596;BME280;27283;52.504;13.358;2022-08-19T13:50:57;100676.56;;;24.30;79.78
41596;BME280;27283;52.504;13.358;2022-08-19T13:53:36;100673.03;;;24.35;79.50
41596;BME280;27283;52.504;13.358;2022-08-19T13:56:19;100669.59;;;23.73;80.78
41596;BME280;27283;52.504;13.358;2022-08-19T13:58:54;100671.88;;;24.03;80.13
41596;BME280;27283;52.504;13.358;2022-08-19T14:04:25;100663.66;;;23.59;81.77
41596;BME280;27283;52.504;13.358;2022-08-19T14:06:57;100656.88;;;23.67;81.63
41596;BME280;27283;52.504;13.358;2022-08-19T14:09:32;100667.88;;;24.38;78.53
41596;BME280;27283;52.504;13.358;2022-08-19T14:12:06;100664.53;;;24.36;79.35
41596;BME280;27283;52.504;13.358;2022-08-19T14:14:38;100664.34;;;24.75;78.05
41596;BME280;27283;52.504;13.358;2022-08-19T14:17:11;100671.28;;;24.51;77.88
41596;BME280;27283;52.504;13.358;2022-08-19T14:19:46;100667.69;;;24.50;77.57
41596;BME280;27283;52.504;13.358;2022-08-19T14:22:17;100668.41;;;24.68;77.42
41596;BME280;27283;52.504;13.358;2022-08-19T14:24:54;100669.31;;;24.19;79.16
41596;BME280;27283;52.504;13.358;2022-08-19T14:27:27;100674.97;;;23.85;79.69
41596;BME280;27283;52.504;13.358;2022-08-19T14:30:00;100662.03;;;24.35;77.42
41596;BME280;27283;52.504;13.358;2022-08-19T14:32:32;100670.38;;;24.45;78.12
41596;BME280;27283;52.504;13.358;2022-08-19T14:35:05;100670.50;;;24.55;77.97
41596;BME280;27283;52.504;13.358;2022-08-19T14:37:37;100671.69;;;24.65;78.27
41596;BME280;27283;52.504;13.358;2022-08-19T14:40:18;100670.81;;;24.91;76.72
41596;BME280;27283;52.504;13.358;2022-08-19T14:42:58;100675.78;;;24.35;77.86
41596;BME280;27283;52.504;13.358;2022-08-19T14:45:33;100672.38;;;24.22;78.49
41596;BME280;27283;52.504;13.358;2022-08-19T14:48:10;100671.91;;;24.31;78.51
41596;BME280;27283;52.504;13.358;2022-08-19T14:50:49;100670.09;;;24.41;77.95
41596;BME280;27283;52.504;13.358;2022-08-19T14:53:21;100664.72;;;23.80;81.09
41596;BME280;27283;52.504;13.358;2022-08-19T14:55:57;100669.50;;;24.12;81.10
41596;BME280;27283;52.504;13.358;2022-08-19T14:58:29;100674.97;;;23.85;81.04
41596;BME280;27283;52.504;13.358;2022-08-19T15:01:04;100678.41;;;23.97;80.40
41596;BME280;27283;52.504;13.358;2022-08-19T15:03:36;100689.41;;;24.24;78.61
41596;BME280;27283;52.504;13.358;2022-08-19T15:06:09;100690.69;;;23.89;79.32
41596;BME280;27283;52.504;13.358;2022-08-19T15:08:42;100696.69;;;24.09;78.98
41596;BME280;27283;52.504;13.358;2022-08-19T15:11:18;100699.00;;;23.95;79.50
41596;BME280;27283;52.504;13.358;2022-08-19T15:13:51;100702.19;;;23.86;80.48
41596;BME280;27283;52.504;13.358;2022-08-19T15:16:23;100707.72;;;24.14;79.12
41596;BME280;27283;52.504;13.358;2022-08-19T15:18:57;100716.28;;;23.95;79.44
41596;BME280;27283;52.504;13.358;2022-08-19T15:21:30;100706.44;;;23.77;80.77
41596;BME280;27283;52.504;13.358;2022-08-19T15:24:02;100715.81;;;23.59;80.13
41596;BME280;27283;52.504;13.358;2022-08-19T15:26:36;100720.34;;;23.70;80.02
41596;BME280;27283;52.504;13.358;2022-08-19T15:29:08;100720.13;;;23.55;80.62
41596;BME280;27283;52.504;13.358;2022-08-19T15:31:42;100725.81;;;23.48;82.60
41596;BME280;27283;52.504;13.358;2022-08-19T15:34:16;100728.00;;;23.85;80.31